createdAt,value
2018-01-03T00:01:03.852Z,974.72
2018-01-03T00:02:10.747Z,974.75
2018-01-03T00:03:17.479Z,974.63
2018-01-03T00:04:24.216Z,974.69
2018-01-03T00:05:30.991Z,974.63
2018-01-03T00:06:37.735Z,974.56
2018-01-03T00:07:44.464Z,974.47
2018-01-03T00:08:51.171Z,974.25
2018-01-03T00:09:57.900Z,974.29
2018-01-03T00:11:04.616Z,974.31
2018-01-03T00:12:11.437Z,974.23
2018-01-03T00:13:18.137Z,974.24
2018-01-03T00:14:24.854Z,974.19
2018-01-03T00:15:31.794Z,974.21
2018-01-03T00:16:38.544Z,974.16
2018-01-03T00:17:45.308Z,974.22
2018-01-03T00:18:52.090Z,974.19
2018-01-03T00:19:59.144Z,974.07
2018-01-03T00:21:05.988Z,974.04
2018-01-03T00:22:12.740Z,973.97
2018-01-03T00:23:19.517Z,973.97
2018-01-03T00:24:26.280Z,974.08
2018-01-03T00:25:33.020Z,974.17
2018-01-03T00:26:39.787Z,973.94
2018-01-03T00:27:46.548Z,973.85
2018-01-03T00:28:53.307Z,973.86
2018-01-03T00:30:00.070Z,973.96
2018-01-03T00:31:06.872Z,973.95
2018-01-03T00:32:13.622Z,973.89
2018-01-03T00:33:20.412Z,973.82
2018-01-03T00:34:27.212Z,973.76
2018-01-03T00:35:33.963Z,973.65
2018-01-03T00:36:40.700Z,973.67
2018-01-03T00:37:47.476Z,973.69
2018-01-03T00:38:54.417Z,973.59
2018-01-03T00:40:01.376Z,973.53
2018-01-03T00:41:08.172Z,973.62
2018-01-03T00:42:14.920Z,973.56
2018-01-03T00:43:21.691Z,973.41
2018-01-03T00:44:28.450Z,973.27
2018-01-03T00:45:35.223Z,973.32
2018-01-03T00:46:41.980Z,973.29
2018-01-03T00:47:48.728Z,973.19
2018-01-03T00:48:55.472Z,973.03
2018-01-03T00:50:02.309Z,972.86
2018-01-03T00:51:09.175Z,972.84
2018-01-03T00:52:15.924Z,972.82
2018-01-03T00:53:22.728Z,972.59
2018-01-03T00:54:29.475Z,972.64
2018-01-03T00:55:36.233Z,972.57
2018-01-03T00:56:43.064Z,972.65
2018-01-03T00:57:49.807Z,972.69
2018-01-03T00:58:56.752Z,972.62
2018-01-03T01:00:03.556Z,972.68
2018-01-03T01:01:10.358Z,972.69
2018-01-03T01:02:17.096Z,972.80
2018-01-03T01:03:23.980Z,972.70
2018-01-03T01:04:30.703Z,972.84
2018-01-03T01:05:37.488Z,972.73
2018-01-03T01:06:44.236Z,972.57
2018-01-03T01:07:51.023Z,972.83
2018-01-03T01:08:57.767Z,972.69
2018-01-03T01:10:04.508Z,972.66
2018-01-03T01:11:11.269Z,972.74
2018-01-03T01:12:18.087Z,972.61
2018-01-03T01:13:24.821Z,972.52
2018-01-03T01:14:31.553Z,972.39
2018-01-03T01:15:38.325Z,972.39
2018-01-03T01:16:45.069Z,972.30
2018-01-03T01:17:51.812Z,972.27
2018-01-03T01:18:58.551Z,972.09
2018-01-03T01:20:05.313Z,972.07
2018-01-03T01:21:12.051Z,972.28
2018-01-03T01:22:18.902Z,972.20
2018-01-03T01:23:25.668Z,972.11
2018-01-03T01:24:32.412Z,972.04
2018-01-03T01:25:39.299Z,971.83
2018-01-03T01:26:47.384Z,971.99
2018-01-03T01:27:53.104Z,971.83
2018-01-03T01:28:59.841Z,971.79
2018-01-03T01:30:06.569Z,971.74
2018-01-03T01:31:13.532Z,971.55
2018-01-03T01:32:20.409Z,971.55
2018-01-03T01:33:27.144Z,971.49
2018-01-03T01:34:33.960Z,971.34
2018-01-03T01:35:40.731Z,971.39
2018-01-03T01:36:47.488Z,971.35
2018-01-03T01:37:54.387Z,971.40
2018-01-03T01:39:01.044Z,971.32
2018-01-03T01:40:07.781Z,971.30
2018-01-03T01:41:14.581Z,971.46
2018-01-03T01:42:21.436Z,971.34
2018-01-03T01:43:28.209Z,971.33
2018-01-03T01:44:35.115Z,971.20
2018-01-03T01:45:41.935Z,970.98
2018-01-03T01:46:48.691Z,971.03
2018-01-03T01:47:55.441Z,970.74
2018-01-03T01:49:02.289Z,970.68
2018-01-03T01:50:09.237Z,970.55
2018-01-03T01:51:16.064Z,970.56
2018-01-03T01:52:23.081Z,970.45
2018-01-03T01:53:30.121Z,970.56
2018-01-03T01:54:37.084Z,970.44
2018-01-03T01:55:43.828Z,970.58
2018-01-03T01:56:50.557Z,970.29
2018-01-03T01:57:57.404Z,970.40
2018-01-03T01:59:04.336Z,970.24
2018-01-03T02:00:11.156Z,970.19
2018-01-03T02:01:18.012Z,970.06
2018-01-03T02:02:24.756Z,969.91
2018-01-03T02:03:31.625Z,970.05
2018-01-03T02:04:38.416Z,970.01
2018-01-03T02:05:45.173Z,969.96
2018-01-03T02:06:52.001Z,969.93
2018-01-03T02:07:58.755Z,969.91
2018-01-03T02:09:05.484Z,969.87
2018-01-03T02:10:12.255Z,969.76
2018-01-03T02:11:19.084Z,969.81
2018-01-03T02:12:25.824Z,969.55
2018-01-03T02:13:32.617Z,969.58
2018-01-03T02:14:39.352Z,969.43
2018-01-03T02:15:46.189Z,969.39
2018-01-03T02:16:53.002Z,969.29
2018-01-03T02:17:59.840Z,969.23
2018-01-03T02:19:06.689Z,969.14
2018-01-03T02:20:13.534Z,969.11
2018-01-03T02:21:20.376Z,968.81
2018-01-03T02:22:27.147Z,968.99
2018-01-03T02:23:33.912Z,968.93
2018-01-03T02:24:40.813Z,968.94
2018-01-03T02:25:47.702Z,968.70
2018-01-03T02:26:54.603Z,968.56
2018-01-03T02:28:01.345Z,968.60
2018-01-03T02:29:08.105Z,968.39
2018-01-03T02:30:15.101Z,968.43
2018-01-03T02:31:21.920Z,968.16
2018-01-03T02:32:28.621Z,968.33
2018-01-03T02:33:35.448Z,968.45
2018-01-03T02:34:42.256Z,968.45
2018-01-03T02:35:49.180Z,968.41
2018-01-03T02:36:55.928Z,968.23
2018-01-03T02:38:02.717Z,968.15
2018-01-03T02:39:10.244Z,967.81
2018-01-03T02:40:16.581Z,967.63
2018-01-03T02:41:25.114Z,967.69
2018-01-03T02:42:30.377Z,967.51
2018-01-03T02:43:37.232Z,967.83
2018-01-03T02:44:43.992Z,967.74
2018-01-03T02:45:50.784Z,967.67
2018-01-03T02:46:57.644Z,967.73
2018-01-03T02:48:04.692Z,967.36
2018-01-03T02:49:11.504Z,967.55
2018-01-03T02:50:18.278Z,967.41
2018-01-03T02:51:25.961Z,967.28
2018-01-03T02:52:32.203Z,967.38
2018-01-03T02:53:38.995Z,967.61
2018-01-03T02:54:45.766Z,967.73
2018-01-03T02:55:52.511Z,967.49
2018-01-03T02:56:59.301Z,967.44
2018-01-03T02:58:06.076Z,967.27
2018-01-03T02:59:12.815Z,967.30
2018-01-03T03:00:19.592Z,967.22
2018-01-03T03:01:26.337Z,967.16
2018-01-03T03:02:33.153Z,966.93
2018-01-03T03:03:40.035Z,966.89
2018-01-03T03:04:46.806Z,966.67
2018-01-03T03:05:53.613Z,966.46
2018-01-03T03:07:00.533Z,966.65
2018-01-03T03:08:07.372Z,966.38
2018-01-03T03:09:14.187Z,966.43
2018-01-03T03:10:21.028Z,966.25
2018-01-03T03:11:27.900Z,966.54
2018-01-03T03:12:34.795Z,966.31
2018-01-03T03:13:41.564Z,966.33
2018-01-03T03:14:48.332Z,966.28
2018-01-03T03:15:55.104Z,966.21
2018-01-03T03:17:02.025Z,966.26
2018-01-03T03:18:08.882Z,966.13
2018-01-03T03:19:15.814Z,965.95
2018-01-03T03:20:22.608Z,965.80
2018-01-03T03:21:29.380Z,965.66
2018-01-03T03:22:36.815Z,965.73
2018-01-03T03:23:43.364Z,965.62
2018-01-03T03:24:50.152Z,965.62
2018-01-03T03:25:56.928Z,965.68
2018-01-03T03:27:03.783Z,965.54
2018-01-03T03:28:10.567Z,965.31
2018-01-03T03:29:17.421Z,965.18
2018-01-03T03:30:24.552Z,965.07
2018-01-03T03:31:31.322Z,964.96
2018-01-03T03:32:38.188Z,965.00
2018-01-03T03:33:45.217Z,964.68
2018-01-03T03:34:52.000Z,964.56
2018-01-03T03:35:58.835Z,964.92
2018-01-03T03:37:05.605Z,964.68
2018-01-03T03:38:12.397Z,964.69
2018-01-03T03:39:19.372Z,964.77
2018-01-03T03:40:25.946Z,964.60
2018-01-03T03:41:32.776Z,964.46
2018-01-03T03:42:39.643Z,964.54
2018-01-03T03:43:46.493Z,964.53
2018-01-03T03:44:54.137Z,964.42
2018-01-03T03:46:00.414Z,964.51
2018-01-03T03:47:07.281Z,964.59
2018-01-03T03:48:14.083Z,964.17
2018-01-03T03:49:21.073Z,964.03
2018-01-03T03:50:28.072Z,963.93
2018-01-03T03:51:34.840Z,964.13
2018-01-03T03:52:41.592Z,964.12
2018-01-03T03:53:48.512Z,964.01
2018-01-03T03:54:55.340Z,963.86
2018-01-03T03:56:02.251Z,963.79
2018-01-03T03:57:09.000Z,963.75
2018-01-03T03:58:15.781Z,964.09
2018-01-03T03:59:22.800Z,964.01
2018-01-03T04:00:29.976Z,963.82
2018-01-03T04:01:36.969Z,963.79
2018-01-03T04:02:43.746Z,963.41
2018-01-03T04:03:50.681Z,963.34
2018-01-03T04:04:57.732Z,963.07
2018-01-03T04:06:04.552Z,962.90
2018-01-03T04:07:11.424Z,962.66
2018-01-03T04:08:18.210Z,962.74
2018-01-03T04:09:25.007Z,962.66
2018-01-03T04:10:31.796Z,962.51
2018-01-03T04:11:38.547Z,962.12
2018-01-03T04:12:45.356Z,962.26
2018-01-03T04:13:52.180Z,962.47
2018-01-03T04:14:59.021Z,962.56
2018-01-03T04:16:05.820Z,962.56
2018-01-03T04:17:12.597Z,962.54
2018-01-03T04:18:19.492Z,962.67
2018-01-03T04:19:26.351Z,962.64
2018-01-03T04:20:33.173Z,962.40
2018-01-03T04:21:39.939Z,962.11
2018-01-03T04:22:46.728Z,962.24
2018-01-03T04:23:53.552Z,962.21
2018-01-03T04:25:00.373Z,962.28
2018-01-03T04:26:07.153Z,962.26
2018-01-03T04:27:13.971Z,962.58
2018-01-03T04:28:20.864Z,962.54
2018-01-03T04:29:27.692Z,962.87
2018-01-03T04:30:34.595Z,962.53
2018-01-03T04:31:41.357Z,962.57
2018-01-03T04:32:48.183Z,962.41
2018-01-03T04:33:54.951Z,962.25
2018-01-03T04:35:01.724Z,961.93
2018-01-03T04:36:08.560Z,962.03
2018-01-03T04:37:15.364Z,961.89
2018-01-03T04:38:22.244Z,961.94
2018-01-03T04:39:29.228Z,961.95
2018-01-03T04:40:36.063Z,962.18
2018-01-03T04:41:42.944Z,962.37
2018-01-03T04:42:49.711Z,962.33
2018-01-03T04:43:56.488Z,962.49
2018-01-03T04:45:03.354Z,962.80
2018-01-03T04:46:10.281Z,963.03
2018-01-03T04:47:17.110Z,963.75
2018-01-03T04:48:23.892Z,964.27
2018-01-03T04:49:30.665Z,964.51
2018-01-03T04:50:37.537Z,964.68
2018-01-03T04:51:44.447Z,964.63
2018-01-03T04:52:51.324Z,964.78
2018-01-03T04:53:58.085Z,964.55
2018-01-03T04:55:04.840Z,964.63
2018-01-03T04:56:11.727Z,964.43
2018-01-03T04:57:18.595Z,964.24
2018-01-03T04:58:25.512Z,963.79
2018-01-03T04:59:32.287Z,963.79
2018-01-03T05:00:39.045Z,963.63
2018-01-03T05:01:45.914Z,963.41
2018-01-03T05:02:52.796Z,963.31
2018-01-03T05:03:59.699Z,963.68
2018-01-03T05:05:06.456Z,963.69
2018-01-03T05:06:13.244Z,963.60
2018-01-03T05:07:20.072Z,963.63
2018-01-03T05:08:27.248Z,963.49
2018-01-03T05:09:34.011Z,963.54
2018-01-03T05:10:41.013Z,963.25
2018-01-03T05:11:47.786Z,963.00
2018-01-03T05:12:54.532Z,962.69
2018-01-03T05:14:01.280Z,963.01
2018-01-03T05:15:08.068Z,963.35
2018-01-03T05:16:14.919Z,963.22
2018-01-03T05:17:21.659Z,963.29
2018-01-03T05:18:28.483Z,963.71
2018-01-03T05:19:35.223Z,963.86
2018-01-03T05:20:41.990Z,964.13
2018-01-03T05:21:48.752Z,964.21
2018-01-03T05:22:55.581Z,964.22
2018-01-03T05:24:02.903Z,964.18
2018-01-03T05:25:09.171Z,964.37
2018-01-03T05:26:15.976Z,964.47
2018-01-03T05:27:22.747Z,964.68
2018-01-03T05:28:29.459Z,964.84
2018-01-03T05:29:36.199Z,964.44
2018-01-03T05:30:43.044Z,964.47
2018-01-03T05:31:49.815Z,964.24
2018-01-03T05:32:56.579Z,964.39
2018-01-03T05:34:03.304Z,964.32
2018-01-03T05:35:10.120Z,964.34
2018-01-03T05:36:16.863Z,964.21
2018-01-03T05:37:23.636Z,964.46
2018-01-03T05:38:30.400Z,964.54
2018-01-03T05:39:37.175Z,964.68
2018-01-03T05:40:43.937Z,964.76
2018-01-03T05:41:50.849Z,964.57
2018-01-03T05:42:58.633Z,964.59
2018-01-03T05:44:04.733Z,964.37
2018-01-03T05:45:11.217Z,964.14
2018-01-03T05:46:18.052Z,964.10
2018-01-03T05:47:24.896Z,963.88
2018-01-03T05:48:32.394Z,963.83
2018-01-03T05:49:38.724Z,963.74
2018-01-03T05:50:48.310Z,963.63
2018-01-03T05:51:52.386Z,963.78
2018-01-03T05:52:59.433Z,963.84
2018-01-03T05:54:06.352Z,963.59
2018-01-03T05:55:13.192Z,963.61
2018-01-03T05:56:19.970Z,963.86
2018-01-03T05:57:26.988Z,963.74
2018-01-03T05:58:33.816Z,963.77
2018-01-03T05:59:40.587Z,963.74
2018-01-03T06:00:47.360Z,963.98
2018-01-03T06:01:54.125Z,963.85
2018-01-03T06:03:00.865Z,963.97
2018-01-03T06:04:07.779Z,964.21
2018-01-03T06:05:14.621Z,964.15
2018-01-03T06:06:21.388Z,963.82
2018-01-03T06:07:28.176Z,963.65
2018-01-03T06:08:35.168Z,963.58
2018-01-03T06:09:41.968Z,963.53
2018-01-03T06:10:48.696Z,963.56
2018-01-03T06:11:55.589Z,963.46
2018-01-03T06:13:02.347Z,963.41
2018-01-03T06:14:09.101Z,963.68
2018-01-03T06:15:15.932Z,963.75
2018-01-03T06:16:22.968Z,963.90
2018-01-03T06:17:29.764Z,963.91
2018-01-03T06:18:36.583Z,963.99
2018-01-03T06:19:43.361Z,964.01
2018-01-03T06:20:50.229Z,964.12
2018-01-03T06:21:57.087Z,964.28
2018-01-03T06:23:03.860Z,964.25
2018-01-03T06:24:10.751Z,964.47
2018-01-03T06:25:17.544Z,964.74
2018-01-03T06:26:24.394Z,964.81
2018-01-03T06:27:31.211Z,965.15
2018-01-03T06:28:37.973Z,965.38
2018-01-03T06:29:44.769Z,965.25
2018-01-03T06:30:51.613Z,965.35
2018-01-03T06:31:58.520Z,965.52
2018-01-03T06:33:05.454Z,965.02
2018-01-03T06:34:12.243Z,965.24
2018-01-03T06:35:19.004Z,965.24
2018-01-03T06:36:25.788Z,965.14
2018-01-03T06:37:32.548Z,965.28
2018-01-03T06:38:39.328Z,965.09
2018-01-03T06:39:46.928Z,965.34
2018-01-03T06:40:53.364Z,965.17
2018-01-03T06:42:00.200Z,965.01
2018-01-03T06:43:06.928Z,964.86
2018-01-03T06:44:13.747Z,964.84
2018-01-03T06:45:20.649Z,964.96
2018-01-03T06:46:27.401Z,965.03
2018-01-03T06:47:34.237Z,964.94
2018-01-03T06:48:41.029Z,964.88
2018-01-03T06:49:47.800Z,964.65
2018-01-03T06:50:54.656Z,964.50
2018-01-03T06:52:01.593Z,964.52
2018-01-03T06:53:08.409Z,964.40
2018-01-03T06:54:15.377Z,964.33
2018-01-03T06:55:22.228Z,964.28
2018-01-03T06:56:29.020Z,964.23
2018-01-03T06:57:36.739Z,964.08
2018-01-03T06:58:42.596Z,964.07
2018-01-03T06:59:49.380Z,964.22
2018-01-03T07:00:56.168Z,964.42
2018-01-03T07:02:03.033Z,964.44
2018-01-03T07:03:09.833Z,964.54
2018-01-03T07:04:16.615Z,964.54
2018-01-03T07:05:23.424Z,964.73
2018-01-03T07:06:30.233Z,964.62
2018-01-03T07:07:37.093Z,964.52
2018-01-03T07:08:43.851Z,964.57
2018-01-03T07:09:50.696Z,964.75
2018-01-03T07:10:57.467Z,964.83
2018-01-03T07:12:04.952Z,964.79
2018-01-03T07:13:11.042Z,964.89
2018-01-03T07:14:17.861Z,964.97
2018-01-03T07:15:24.688Z,964.91
2018-01-03T07:16:31.505Z,964.81
2018-01-03T07:17:38.656Z,964.70
2018-01-03T07:18:45.587Z,964.64
2018-01-03T07:19:52.360Z,964.60
2018-01-03T07:20:59.140Z,964.57
2018-01-03T07:22:06.000Z,964.73
2018-01-03T07:23:12.813Z,964.69
2018-01-03T07:24:19.609Z,964.80
2018-01-03T07:25:26.419Z,964.80
2018-01-03T07:26:33.176Z,964.91
2018-01-03T07:27:40.000Z,964.97
2018-01-03T07:28:46.819Z,965.10
2018-01-03T07:29:53.592Z,965.21
2018-01-03T07:31:00.444Z,965.21
2018-01-03T07:32:07.284Z,965.21
2018-01-03T07:33:14.076Z,965.23
2018-01-03T07:34:20.927Z,965.28
2018-01-03T07:35:27.717Z,965.39
2018-01-03T07:36:34.702Z,965.45
2018-01-03T07:37:41.492Z,965.46
2018-01-03T07:38:48.287Z,965.57
2018-01-03T07:39:55.440Z,965.55
2018-01-03T07:41:02.201Z,965.69
2018-01-03T07:42:09.020Z,965.67
2018-01-03T07:43:15.793Z,965.73
2018-01-03T07:44:22.552Z,965.71
2018-01-03T07:45:29.474Z,965.74
2018-01-03T07:46:36.281Z,965.91
2018-01-03T07:47:43.092Z,965.83
2018-01-03T07:48:49.897Z,965.65
2018-01-03T07:49:56.687Z,965.83
2018-01-03T07:51:03.467Z,965.74
2018-01-03T07:52:10.300Z,965.72
2018-01-03T07:53:17.111Z,965.72
2018-01-03T07:54:23.988Z,965.65
2018-01-03T07:55:30.756Z,965.61
2018-01-03T07:56:37.536Z,965.67
2018-01-03T07:57:44.575Z,965.59
2018-01-03T07:58:51.356Z,965.40
2018-01-03T07:59:58.145Z,965.48
2018-01-03T08:01:04.941Z,965.33
2018-01-03T08:02:11.792Z,965.36
2018-01-03T08:03:18.660Z,965.45
2018-01-03T08:04:25.543Z,965.42
2018-01-03T08:05:32.459Z,965.44
2018-01-03T08:06:39.297Z,965.44
2018-01-03T08:07:46.052Z,965.52
2018-01-03T08:08:52.836Z,965.42
2018-01-03T08:09:59.685Z,965.27
2018-01-03T08:11:06.435Z,965.38
2018-01-03T08:12:13.275Z,965.42
2018-01-03T08:13:20.060Z,965.46
2018-01-03T08:14:27.212Z,965.48
2018-01-03T08:15:33.651Z,965.59
2018-01-03T08:16:40.415Z,965.49
2018-01-03T08:17:47.168Z,965.76
2018-01-03T08:18:54.012Z,965.84
2018-01-03T08:20:00.869Z,965.77
2018-01-03T08:21:07.739Z,965.83
2018-01-03T08:22:14.504Z,965.79
2018-01-03T08:23:21.380Z,965.71
2018-01-03T08:24:28.468Z,965.67
2018-01-03T08:25:35.097Z,965.78
2018-01-03T08:26:41.984Z,965.85
2018-01-03T08:27:48.674Z,965.93
2018-01-03T08:28:55.698Z,965.92
2018-01-03T08:30:02.817Z,965.83
2018-01-03T08:31:09.745Z,965.75
2018-01-03T08:32:16.632Z,965.64
2018-01-03T08:33:23.439Z,965.63
2018-01-03T08:34:30.412Z,965.92
2018-01-03T08:35:37.460Z,965.70
2018-01-03T08:36:44.361Z,965.84
2018-01-03T08:37:51.268Z,966.02
2018-01-03T08:38:58.100Z,965.96
2018-01-03T08:40:05.124Z,965.94
2018-01-03T08:41:11.976Z,966.00
2018-01-03T08:42:18.853Z,965.95
2018-01-03T08:43:25.624Z,966.05
2018-01-03T08:44:32.389Z,966.18
2018-01-03T08:45:39.178Z,966.22
2018-01-03T08:46:45.985Z,966.31
2018-01-03T08:47:52.772Z,966.01
2018-01-03T08:48:59.635Z,966.16
2018-01-03T08:50:06.520Z,966.21
2018-01-03T08:51:13.381Z,966.52
2018-01-03T08:52:20.266Z,966.65
2018-01-03T08:53:27.029Z,966.50
2018-01-03T08:54:33.856Z,966.55
2018-01-03T08:55:40.694Z,966.71
2018-01-03T08:56:47.457Z,966.69
2018-01-03T08:57:54.287Z,966.86
2018-01-03T08:59:01.056Z,966.69
2018-01-03T09:00:07.804Z,966.99
2018-01-03T09:01:14.673Z,966.85
2018-01-03T09:02:21.500Z,966.97
2018-01-03T09:03:28.608Z,966.97
2018-01-03T09:04:35.424Z,966.84
2018-01-03T09:05:42.180Z,967.04
2018-01-03T09:06:49.016Z,967.06
2018-01-03T09:07:55.925Z,967.10
2018-01-03T09:09:02.780Z,966.91
2018-01-03T09:10:09.643Z,967.00
2018-01-03T09:11:16.445Z,967.06
2018-01-03T09:12:23.268Z,967.17
2018-01-03T09:13:30.060Z,967.14
2018-01-03T09:14:36.845Z,967.17
2018-01-03T09:15:43.580Z,967.17
2018-01-03T09:16:50.345Z,967.27
2018-01-03T09:17:57.180Z,967.22
2018-01-03T09:19:04.092Z,967.29
2018-01-03T09:20:10.916Z,967.20
2018-01-03T09:21:18.035Z,967.18
2018-01-03T09:22:24.845Z,967.28
2018-01-03T09:23:31.926Z,967.32
2018-01-03T09:24:39.980Z,967.36
2018-01-03T09:25:45.756Z,967.38
2018-01-03T09:26:52.555Z,967.59
2018-01-03T09:27:59.329Z,967.58
2018-01-03T09:29:06.140Z,967.42
2018-01-03T09:30:12.991Z,967.75
2018-01-03T09:31:19.783Z,967.76
2018-01-03T09:32:26.580Z,967.56
2018-01-03T09:33:33.399Z,967.69
2018-01-03T09:34:40.227Z,967.72
2018-01-03T09:35:47.300Z,967.70
2018-01-03T09:36:54.108Z,967.88
2018-01-03T09:38:01.029Z,967.71
2018-01-03T09:39:07.848Z,967.84
2018-01-03T09:40:14.628Z,967.95
2018-01-03T09:41:21.472Z,967.93
2018-01-03T09:42:28.232Z,967.96
2018-01-03T09:43:35.044Z,967.92
2018-01-03T09:44:41.835Z,967.95
2018-01-03T09:45:48.640Z,967.93
2018-01-03T09:46:55.458Z,967.93
2018-01-03T09:48:02.310Z,967.95
2018-01-03T09:49:09.148Z,968.16
2018-01-03T09:50:16.064Z,968.20
2018-01-03T09:51:22.819Z,968.16
2018-01-03T09:52:29.580Z,968.32
2018-01-03T09:53:36.339Z,968.41
2018-01-03T09:54:43.199Z,968.45
2018-01-03T09:55:50.117Z,968.32
2018-01-03T09:56:56.964Z,968.48
2018-01-03T09:58:03.788Z,968.35
2018-01-03T09:59:10.578Z,968.33
2018-01-03T10:00:17.432Z,968.59
2018-01-03T10:01:24.229Z,968.52
2018-01-03T10:02:31.213Z,968.47
2018-01-03T10:03:38.033Z,968.54
2018-01-03T10:04:44.794Z,968.60
2018-01-03T10:05:51.577Z,968.78
2018-01-03T10:06:58.377Z,968.67
2018-01-03T10:08:05.277Z,968.68
2018-01-03T10:09:12.235Z,968.68
2018-01-03T10:10:19.001Z,968.78
2018-01-03T10:11:26.084Z,968.83
2018-01-03T10:12:33.028Z,968.63
2018-01-03T10:13:39.896Z,968.80
2018-01-03T10:14:46.736Z,969.04
2018-01-03T10:15:53.529Z,968.96
2018-01-03T10:17:00.275Z,968.93
2018-01-03T10:18:07.184Z,969.03
2018-01-03T10:19:13.982Z,968.95
2018-01-03T10:20:20.720Z,968.95
2018-01-03T10:21:27.883Z,969.02
2018-01-03T10:22:34.364Z,969.07
2018-01-03T10:23:41.151Z,969.02
2018-01-03T10:24:47.926Z,969.07
2018-01-03T10:25:54.722Z,969.25
2018-01-03T10:27:01.508Z,969.14
2018-01-03T10:28:08.268Z,969.24
2018-01-03T10:29:14.971Z,969.22
2018-01-03T10:30:21.782Z,969.10
2018-01-03T10:31:28.594Z,969.22
2018-01-03T10:32:35.320Z,969.20
2018-01-03T10:33:42.155Z,969.11
2018-01-03T10:34:48.960Z,969.21
2018-01-03T10:35:55.952Z,969.34
2018-01-03T10:37:02.668Z,969.29
2018-01-03T10:38:09.440Z,969.21
2018-01-03T10:39:16.235Z,969.41
2018-01-03T10:40:22.998Z,969.34
2018-01-03T10:41:29.732Z,969.21
2018-01-03T10:42:36.464Z,969.29
2018-01-03T10:43:43.226Z,969.42
2018-01-03T10:44:50.137Z,969.22
2018-01-03T10:45:56.918Z,969.35
2018-01-03T10:47:03.800Z,969.16
2018-01-03T10:48:10.968Z,969.47
2018-01-03T10:49:17.692Z,969.38
2018-01-03T10:50:24.436Z,969.38
2018-01-03T10:51:31.172Z,969.40
2018-01-03T10:52:38.024Z,969.37
2018-01-03T10:53:44.764Z,969.36
2018-01-03T10:54:51.524Z,969.58
2018-01-03T10:55:58.673Z,969.66
2018-01-03T10:57:05.413Z,969.61
2018-01-03T10:58:12.232Z,969.45
2018-01-03T10:59:18.981Z,969.62
2018-01-03T11:00:25.745Z,969.58
2018-01-03T11:01:32.547Z,969.67
2018-01-03T11:02:39.327Z,969.57
2018-01-03T11:03:46.082Z,969.61
2018-01-03T11:04:53.124Z,969.68
2018-01-03T11:05:59.956Z,969.70
2018-01-03T11:07:06.940Z,969.74
2018-01-03T11:08:13.660Z,969.67
2018-01-03T11:09:20.425Z,969.69
2018-01-03T11:10:27.224Z,969.76
2018-01-03T11:11:34.073Z,969.84
2018-01-03T11:12:40.743Z,969.78
2018-01-03T11:13:47.527Z,969.61
2018-01-03T11:14:54.380Z,969.75
2018-01-03T11:16:01.120Z,969.65
2018-01-03T11:17:07.878Z,969.76
2018-01-03T11:18:14.651Z,969.78
2018-01-03T11:19:21.447Z,969.86
2018-01-03T11:20:28.168Z,969.85
2018-01-03T11:21:34.992Z,969.88
2018-01-03T11:22:41.862Z,969.75
2018-01-03T11:23:48.729Z,969.89
2018-01-03T11:24:55.672Z,969.94
2018-01-03T11:26:02.485Z,970.03
2018-01-03T11:27:09.339Z,970.08
2018-01-03T11:28:16.173Z,970.02
2018-01-03T11:29:23.056Z,969.95
2018-01-03T11:30:29.903Z,970.05
2018-01-03T11:31:36.985Z,970.18
2018-01-03T11:32:43.761Z,970.29
2018-01-03T11:33:50.515Z,970.22
2018-01-03T11:34:57.248Z,970.12
2018-01-03T11:36:04.115Z,970.12
2018-01-03T11:37:10.944Z,970.11
2018-01-03T11:38:18.249Z,970.01
2018-01-03T11:39:24.544Z,970.23
2018-01-03T11:40:31.313Z,970.17
2018-01-03T11:41:38.154Z,970.25
2018-01-03T11:42:44.980Z,970.10
2018-01-03T11:43:51.744Z,970.28
2018-01-03T11:44:58.504Z,970.34
2018-01-03T11:46:05.281Z,970.32
2018-01-03T11:47:12.075Z,970.49
2018-01-03T11:48:18.955Z,970.49
2018-01-03T11:49:26.214Z,970.35
2018-01-03T11:50:32.804Z,970.41
2018-01-03T11:51:39.604Z,970.34
2018-01-03T11:52:46.339Z,970.44
2018-01-03T11:53:53.100Z,970.39
2018-01-03T11:54:59.848Z,970.33
2018-01-03T11:56:06.720Z,970.37
2018-01-03T11:57:13.533Z,970.28
2018-01-03T11:58:20.224Z,970.37
2018-01-03T11:59:26.977Z,970.43
2018-01-03T12:00:33.820Z,970.41
2018-01-03T12:01:40.644Z,970.24
2018-01-03T12:02:47.501Z,970.49
2018-01-03T12:03:54.340Z,970.33
2018-01-03T12:05:01.100Z,970.41
2018-01-03T12:06:07.925Z,970.61
2018-01-03T12:07:14.806Z,970.53
2018-01-03T12:08:21.593Z,970.54
2018-01-03T12:09:28.437Z,970.61
2018-01-03T12:10:35.202Z,970.64
2018-01-03T12:11:41.948Z,970.58
2018-01-03T12:12:48.684Z,970.78
2018-01-03T12:13:55.496Z,970.74
2018-01-03T12:15:02.309Z,970.88
2018-01-03T12:16:09.100Z,970.89
2018-01-03T12:17:15.895Z,971.00
2018-01-03T12:18:22.639Z,970.87
2018-01-03T12:19:30.287Z,970.87
2018-01-03T12:20:36.568Z,970.81
2018-01-03T12:21:43.312Z,970.94
2018-01-03T12:22:51.117Z,970.91
2018-01-03T12:23:56.840Z,970.99
2018-01-03T12:25:03.614Z,970.94
2018-01-03T12:26:10.442Z,970.94
2018-01-03T12:27:17.196Z,970.93
2018-01-03T12:28:23.965Z,970.96
2018-01-03T12:29:30.772Z,971.00
2018-01-03T12:30:37.624Z,970.94
2018-01-03T12:31:44.493Z,971.18
2018-01-03T12:32:51.276Z,970.97
2018-01-03T12:33:58.048Z,971.10
2018-01-03T12:35:05.393Z,971.06
2018-01-03T12:36:11.697Z,971.18
2018-01-03T12:37:18.472Z,971.21
2018-01-03T12:38:25.260Z,971.11
2018-01-03T12:39:32.012Z,971.01
2018-01-03T12:40:38.848Z,971.04
2018-01-03T12:41:45.772Z,971.04
2018-01-03T12:42:52.616Z,971.18
2018-01-03T12:43:59.376Z,971.09
2018-01-03T12:45:06.107Z,971.04
2018-01-03T12:46:12.877Z,971.14
2018-01-03T12:47:19.667Z,971.36
2018-01-03T12:48:26.460Z,971.16
2018-01-03T12:49:38.448Z,971.27
2018-01-03T12:50:40.208Z,971.21
2018-01-03T12:51:46.966Z,971.22
2018-01-03T12:52:53.852Z,971.25
2018-01-03T12:54:00.797Z,971.46
2018-01-03T12:55:07.627Z,971.38
2018-01-03T12:56:14.380Z,971.44
2018-01-03T12:57:21.192Z,971.48
2018-01-03T12:58:28.048Z,971.32
2018-01-03T12:59:34.852Z,971.35
2018-01-03T13:00:41.844Z,971.35
2018-01-03T13:01:48.684Z,971.40
2018-01-03T13:02:55.544Z,971.34
2018-01-03T13:04:05.652Z,971.46
2018-01-03T13:05:09.452Z,971.44
2018-01-03T13:06:16.372Z,971.53
2018-01-03T13:07:23.155Z,971.50
2018-01-03T13:08:29.952Z,971.59
2018-01-03T13:09:37.133Z,971.58
2018-01-03T13:10:43.496Z,971.64
2018-01-03T13:11:50.284Z,971.53
2018-01-03T13:12:57.113Z,971.72
2018-01-03T13:14:03.916Z,971.59
2018-01-03T13:15:10.905Z,971.61
2018-01-03T13:16:17.717Z,971.78
2018-01-03T13:17:25.931Z,971.56
2018-01-03T13:18:32.021Z,971.66
2018-01-03T13:19:38.277Z,971.60
2018-01-03T13:20:45.196Z,971.59
2018-01-03T13:21:51.928Z,971.67
2018-01-03T13:22:58.758Z,971.60
2018-01-03T13:24:05.672Z,971.81
2018-01-03T13:25:12.810Z,971.72
2018-01-03T13:26:19.647Z,972.13
2018-01-03T13:27:26.369Z,971.73
2018-01-03T13:28:33.503Z,971.98
2018-01-03T13:29:40.332Z,971.87
2018-01-03T13:30:47.095Z,972.11
2018-01-03T13:31:53.863Z,971.99
2018-01-03T13:33:00.580Z,972.18
2018-01-03T13:34:07.419Z,971.98
2018-01-03T13:35:14.147Z,972.12
2018-01-03T13:36:20.912Z,972.12
2018-01-03T13:37:27.759Z,972.15
2018-01-03T13:38:34.484Z,972.19
2018-01-03T13:39:41.272Z,972.17
2018-01-03T13:40:48.321Z,972.30
2018-01-03T13:41:55.182Z,972.20
2018-01-03T13:43:01.949Z,972.16
2018-01-03T13:44:09.121Z,972.18
2018-01-03T13:45:15.902Z,972.20
2018-01-03T13:46:22.571Z,972.23
2018-01-03T13:47:29.564Z,972.32
2018-01-03T13:48:36.315Z,972.37
2018-01-03T13:49:43.084Z,972.35
2018-01-03T13:50:49.981Z,972.35
2018-01-03T13:51:56.796Z,972.44
2018-01-03T13:53:06.636Z,972.47
2018-01-03T13:54:10.494Z,972.54